sensor_id;sensor_type;location;lat;lon;timestamp;temperature;humidity
7004;DHT22;3542;48.812;9.146;2022-12-07T00:00:30;4.10;99.90
7004;DHT22;3542;48.812;9.146;2022-12-07T00:02:55;4.10;99.90
7004;DHT22;3542;48.812;9.146;2022-12-07T00:05:21;4.10;99.90
7004;DHT22;3542;48.812;9.146;2022-12-07T00:07:46;4.10;99.90
7004;DHT22;3542;48.812;9.146;2022-12-07T00:10:12;4.10;99.90
7004;DHT22;3542;48.812;9.146;2022-12-07T00:12:37;4.10;99.90
7004;DHT22;3542;48.812;9.146;2022-12-07T00:15:03;4.10;99.90
7004;DHT22;3542;48.812;9.146;2022-12-07T00:17:28;4.10;99.90
7004;DHT22;3542;48.812;9.146;2022-12-07T00:19:54;4.10;99.90
7004;DHT22;3542;48.812;9.146;2022-12-07T00:22:19;4.10;99.90
7004;DHT22;3542;48.812;9.146;2022-12-07T00:24:45;4.10;99.90
7004;DHT22;3542;48.812;9.146;2022-12-07T00:27:10;4.10;99.90
7004;DHT22;3542;48.812;9.146;2022-12-07T00:29:36;4.10;99.90
7004;DHT22;3542;48.812;9.146;2022-12-07T00:32:02;4.10;99.90
7004;DHT22;3542;48.812;9.146;2022-12-07T00:34:28;4.10;99.90
7004;DHT22;3542;48.812;9.146;2022-12-07T00:36:54;4.10;99.90
7004;DHT22;3542;48.812;9.146;2022-12-07T00:39:19;4.00;99.90
7004;DHT22;3542;48.812;9.146;2022-12-07T00:41:45;4.10;99.90
7004;DHT22;3542;48.812;9.146;2022-12-07T00:44:10;4.00;99.90
7004;DHT22;3542;48.812;9.146;2022-12-07T00:46:36;4.00;99.90
7004;DHT22;3542;48.812;9.146;2022-12-07T00:49:01;4.00;99.90
7004;DHT22;3542;48.812;9.146;2022-12-07T00:51:27;4.00;99.90
7004;DHT22;3542;48.812;9.146;2022-12-07T00:53:52;4.00;99.90
7004;DHT22;3542;48.812;9.146;2022-12-07T00:56:21;4.00;99.90
7004;DHT22;3542;48.812;9.146;2022-12-07T00:58:51;4.00;99.90
7004;DHT22;3542;48.812;9.146;2022-12-07T01:01:16;4.00;99.90
7004;DHT22;3542;48.812;9.146;2022-12-07T01:03:42;4.00;99.90
7004;DHT22;3542;48.812;9.146;2022-12-07T01:06:07;4.00;99.90
7004;DHT22;3542;48.812;9.146;2022-12-07T01:08:33;3.90;99.90
7004;DHT22;3542;48.812;9.146;2022-12-07T01:11:03;3.90;99.90
7004;DHT22;3542;48.812;9.146;2022-12-07T01:13:30;3.90;99.90
7004;DHT22;3542;48.812;9.146;2022-12-07T01:15:58;3.90;99.90
7004;DHT22;3542;48.812;9.146;2022-12-07T01:18:26;3.90;99.90
7004;DHT22;3542;48.812;9.146;2022-12-07T01:21:04;3.80;99.90
7004;DHT22;3542;48.812;9.146;2022-12-07T01:23:31;3.80;99.90
7004;DHT22;3542;48.812;9.146;2022-12-07T01:25:58;3.80;99.90
7004;DHT22;3542;48.812;9.146;2022-12-07T01:28:24;3.80;99.90
7004;DHT22;3542;48.812;9.146;2022-12-07T01:31:04;3.80;99.90
7004;DHT22;3542;48.812;9.146;2022-12-07T01:33:32;3.80;99.90
7004;DHT22;3542;48.812;9.146;2022-12-07T01:36:26;3.80;99.90
7004;DHT22;3542;48.812;9.146;2022-12-07T01:38:55;3.80;99.90
7004;DHT22;3542;48.812;9.146;2022-12-07T01:41:23;3.80;99.90
7004;DHT22;3542;48.812;9.146;2022-12-07T01:46:36;3.80;99.90
7004;DHT22;3542;48.812;9.146;2022-12-07T01:49:03;3.80;99.90
7004;DHT22;3542;48.812;9.146;2022-12-07T01:51:30;3.80;99.90
7004;DHT22;3542;48.812;9.146;2022-12-07T01:53:56;3.80;99.90
7004;DHT22;3542;48.812;9.146;2022-12-07T01:56:25;3.80;99.90
7004;DHT22;3542;48.812;9.146;2022-12-07T01:58:52;3.80;99.90
7004;DHT22;3542;48.812;9.146;2022-12-07T03:37:52;3.40;99.90
7004;DHT22;3542;48.812;9.146;2022-12-07T03:40:37;3.50;99.90
7004;DHT22;3542;48.812;9.146;2022-12-07T03:43:05;3.40;99.90
7004;DHT22;3542;48.812;9.146;2022-12-07T03:45:38;3.40;99.90
7004;DHT22;3542;48.812;9.146;2022-12-07T03:48:37;3.40;99.90
7004;DHT22;3542;48.812;9.146;2022-12-07T03:51:07;3.40;99.90
7004;DHT22;3542;48.812;9.146;2022-12-07T03:53:40;3.40;99.90
7004;DHT22;3542;48.812;9.146;2022-12-07T03:56:09;3.30;99.90
7004;DHT22;3542;48.812;9.146;2022-12-07T03:58:36;3.30;99.90
7004;DHT22;3542;48.812;9.146;2022-12-07T04:01:02;3.30;99.90
7004;DHT22;3542;48.812;9.146;2022-12-07T04:03:28;3.20;99.90
7004;DHT22;3542;48.812;9.146;2022-12-07T04:05:54;3.20;99.90
7004;DHT22;3542;48.812;9.146;2022-12-07T04:08:19;3.10;99.90
7004;DHT22;3542;48.812;9.146;2022-12-07T04:10:45;3.10;99.90
7004;DHT22;3542;48.812;9.146;2022-12-07T04:13:10;3.10;99.90
7004;DHT22;3542;48.812;9.146;2022-12-07T04:15:36;3.10;99.90
7004;DHT22;3542;48.812;9.146;2022-12-07T04:18:01;3.10;99.90
7004;DHT22;3542;48.812;9.146;2022-12-07T04:20:27;3.00;99.90
7004;DHT22;3542;48.812;9.146;2022-12-07T04:22:52;3.10;99.90
7004;DHT22;3542;48.812;9.146;2022-12-07T04:25:18;3.00;99.90
7004;DHT22;3542;48.812;9.146;2022-12-07T04:27:43;3.00;99.90
7004;DHT22;3542;48.812;9.146;2022-12-07T04:30:09;3.00;99.90
7004;DHT22;3542;48.812;9.146;2022-12-07T04:32:35;3.00;99.90
7004;DHT22;3542;48.812;9.146;2022-12-07T04:35:00;3.00;99.90
7004;DHT22;3542;48.812;9.146;2022-12-07T04:37:26;3.00;99.90
7004;DHT22;3542;48.812;9.146;2022-12-07T04:39:51;3.10;99.90
7004;DHT22;3542;48.812;9.146;2022-12-07T04:42:17;3.10;99.90
7004;DHT22;3542;48.812;9.146;2022-12-07T04:44:42;3.10;99.90
7004;DHT22;3542;48.812;9.146;2022-12-07T04:47:08;3.10;99.90
7004;DHT22;3542;48.812;9.146;2022-12-07T04:49:33;3.20;99.90
7004;DHT22;3542;48.812;9.146;2022-12-07T04:51:59;3.20;99.90
7004;DHT22;3542;48.812;9.146;2022-12-07T04:54:25;3.10;99.90
7004;DHT22;3542;48.812;9.146;2022-12-07T04:56:50;3.10;99.90
7004;DHT22;3542;48.812;9.146;2022-12-07T04:59:16;3.10;99.90
7004;DHT22;3542;48.812;9.146;2022-12-07T05:01:42;3.10;99.90
7004;DHT22;3542;48.812;9.146;2022-12-07T05:04:08;3.10;99.90
7004;DHT22;3542;48.812;9.146;2022-12-07T05:06:34;3.10;99.90
7004;DHT22;3542;48.812;9.146;2022-12-07T05:09:02;3.00;99.90
7004;DHT22;3542;48.812;9.146;2022-12-07T05:11:27;3.10;99.90
7004;DHT22;3542;48.812;9.146;2022-12-07T05:14:15;3.10;99.90
7004;DHT22;3542;48.812;9.146;2022-12-07T05:16:42;3.00;99.90
7004;DHT22;3542;48.812;9.146;2022-12-07T05:19:08;3.00;99.90
7004;DHT22;3542;48.812;9.146;2022-12-07T05:21:35;2.90;99.90
7004;DHT22;3542;48.812;9.146;2022-12-07T05:24:00;2.80;99.90
7004;DHT22;3542;48.812;9.146;2022-12-07T05:26:26;2.80;99.90
7004;DHT22;3542;48.812;9.146;2022-12-07T05:28:53;2.80;99.90
7004;DHT22;3542;48.812;9.146;2022-12-07T05:31:19;2.80;99.90
7004;DHT22;3542;48.812;9.146;2022-12-07T05:33:45;2.70;99.90
7004;DHT22;3542;48.812;9.146;2022-12-07T05:36:11;2.70;99.90
7004;DHT22;3542;48.812;9.146;2022-12-07T05:38:36;2.70;99.90
7004;DHT22;3542;48.812;9.146;2022-12-07T05:41:03;2.60;99.90
7004;DHT22;3542;48.812;9.146;2022-12-07T05:43:29;2.50;99.90
7004;DHT22;3542;48.812;9.146;2022-12-07T05:45:55;2.50;99.90
7004;DHT22;3542;48.812;9.146;2022-12-07T05:48:20;2.50;99.90
7004;DHT22;3542;48.812;9.146;2022-12-07T05:50:49;2.40;99.90
7004;DHT22;3542;48.812;9.146;2022-12-07T05:53:15;2.40;99.90
7004;DHT22;3542;48.812;9.146;2022-12-07T05:55:41;2.30;99.90
7004;DHT22;3542;48.812;9.146;2022-12-07T05:58:07;2.30;99.90
7004;DHT22;3542;48.812;9.146;2022-12-07T06:00:53;2.30;99.90
7004;DHT22;3542;48.812;9.146;2022-12-07T06:03:19;2.30;99.90
7004;DHT22;3542;48.812;9.146;2022-12-07T06:05:44;2.40;99.90
7004;DHT22;3542;48.812;9.146;2022-12-07T06:08:10;2.30;99.90
7004;DHT22;3542;48.812;9.146;2022-12-07T06:10:35;2.30;99.90
7004;DHT22;3542;48.812;9.146;2022-12-07T06:13:01;2.30;99.90
7004;DHT22;3542;48.812;9.146;2022-12-07T06:15:26;2.40;99.90
7004;DHT22;3542;48.812;9.146;2022-12-07T06:17:52;2.40;99.90
7004;DHT22;3542;48.812;9.146;2022-12-07T06:20:17;2.40;99.90
7004;DHT22;3542;48.812;9.146;2022-12-07T06:22:43;2.40;99.90
7004;DHT22;3542;48.812;9.146;2022-12-07T06:25:08;2.50;99.90
7004;DHT22;3542;48.812;9.146;2022-12-07T06:27:35;2.50;99.90
7004;DHT22;3542;48.812;9.146;2022-12-07T06:30:00;2.50;99.90
7004;DHT22;3542;48.812;9.146;2022-12-07T06:32:32;2.60;99.90
7004;DHT22;3542;48.812;9.146;2022-12-07T06:34:58;2.60;99.90
7004;DHT22;3542;48.812;9.146;2022-12-07T06:37:23;2.60;99.90
7004;DHT22;3542;48.812;9.146;2022-12-07T06:39:49;2.60;99.90
7004;DHT22;3542;48.812;9.146;2022-12-07T06:42:14;2.60;99.90
7004;DHT22;3542;48.812;9.146;2022-12-07T06:44:39;2.60;99.90
7004;DHT22;3542;48.812;9.146;2022-12-07T06:47:05;2.60;99.90
7004;DHT22;3542;48.812;9.146;2022-12-07T06:49:33;2.60;99.90
7004;DHT22;3542;48.812;9.146;2022-12-07T06:51:58;2.60;99.90
7004;DHT22;3542;48.812;9.146;2022-12-07T06:54:24;2.50;99.90
7004;DHT22;3542;48.812;9.146;2022-12-07T06:56:50;2.60;99.90
7004;DHT22;3542;48.812;9.146;2022-12-07T06:59:15;2.60;99.90
7004;DHT22;3542;48.812;9.146;2022-12-07T07:01:41;2.60;99.90
7004;DHT22;3542;48.812;9.146;2022-12-07T07:04:06;2.70;99.90
7004;DHT22;3542;48.812;9.146;2022-12-07T07:06:32;2.70;99.90
7004;DHT22;3542;48.812;9.146;2022-12-07T07:08:57;2.70;99.90
7004;DHT22;3542;48.812;9.146;2022-12-07T07:11:23;2.80;99.90
7004;DHT22;3542;48.812;9.146;2022-12-07T07:13:48;2.80;99.90
7004;DHT22;3542;48.812;9.146;2022-12-07T07:16:15;2.80;99.90
7004;DHT22;3542;48.812;9.146;2022-12-07T07:18:40;2.90;99.90
7004;DHT22;3542;48.812;9.146;2022-12-07T07:21:06;3.00;99.90
7004;DHT22;3542;48.812;9.146;2022-12-07T07:23:31;3.00;99.90
7004;DHT22;3542;48.812;9.146;2022-12-07T07:25:57;3.00;99.90
7004;DHT22;3542;48.812;9.146;2022-12-07T07:28:23;3.10;99.90
7004;DHT22;3542;48.812;9.146;2022-12-07T07:30:48;3.10;99.90
7004;DHT22;3542;48.812;9.146;2022-12-07T07:33:14;3.10;99.90
7004;DHT22;3542;48.812;9.146;2022-12-07T07:35:40;3.20;99.90
7004;DHT22;3542;48.812;9.146;2022-12-07T07:38:06;3.20;99.90
7004;DHT22;3542;48.812;9.146;2022-12-07T07:40:32;3.30;99.90
7004;DHT22;3542;48.812;9.146;2022-12-07T07:42:58;3.30;99.90
7004;DHT22;3542;48.812;9.146;2022-12-07T07:45:25;3.30;99.90
7004;DHT22;3542;48.812;9.146;2022-12-07T07:47:50;3.30;99.90
7004;DHT22;3542;48.812;9.146;2022-12-07T07:50:16;3.40;99.90
7004;DHT22;3542;48.812;9.146;2022-12-07T07:52:42;3.40;99.90
7004;DHT22;3542;48.812;9.146;2022-12-07T07:55:08;3.40;99.90
7004;DHT22;3542;48.812;9.146;2022-12-07T07:57:35;3.50;99.90
7004;DHT22;3542;48.812;9.146;2022-12-07T08:00:02;3.50;99.90
7004;DHT22;3542;48.812;9.146;2022-12-07T08:02:28;3.50;99.90
7004;DHT22;3542;48.812;9.146;2022-12-07T08:04:54;3.60;99.90
7004;DHT22;3542;48.812;9.146;2022-12-07T08:07:20;3.60;99.90
7004;DHT22;3542;48.812;9.146;2022-12-07T08:09:45;3.70;99.90
7004;DHT22;3542;48.812;9.146;2022-12-07T08:12:11;3.70;99.90
7004;DHT22;3542;48.812;9.146;2022-12-07T08:14:37;3.80;99.90
7004;DHT22;3542;48.812;9.146;2022-12-07T08:17:02;3.80;99.90
7004;DHT22;3542;48.812;9.146;2022-12-07T08:19:28;3.90;99.90
7004;DHT22;3542;48.812;9.146;2022-12-07T08:21:53;3.90;99.90
7004;DHT22;3542;48.812;9.146;2022-12-07T08:24:21;3.90;99.90
7004;DHT22;3542;48.812;9.146;2022-12-07T08:26:46;4.00;99.90
7004;DHT22;3542;48.812;9.146;2022-12-07T08:29:12;4.10;99.90
7004;DHT22;3542;48.812;9.146;2022-12-07T08:31:37;4.20;99.90
7004;DHT22;3542;48.812;9.146;2022-12-07T08:34:03;4.20;99.90
7004;DHT22;3542;48.812;9.146;2022-12-07T08:36:28;4.20;99.90
7004;DHT22;3542;48.812;9.146;2022-12-07T08:38:54;4.20;99.90
7004;DHT22;3542;48.812;9.146;2022-12-07T08:41:19;4.40;99.90
7004;DHT22;3542;48.812;9.146;2022-12-07T08:43:45;4.40;99.90
7004;DHT22;3542;48.812;9.146;2022-12-07T08:48:58;4.60;99.90
7004;DHT22;3542;48.812;9.146;2022-12-07T08:51:27;4.70;99.90
7004;DHT22;3542;48.812;9.146;2022-12-07T08:53:53;4.70;99.90
7004;DHT22;3542;48.812;9.146;2022-12-07T08:56:21;4.70;99.90
7004;DHT22;3542;48.812;9.146;2022-12-07T08:58:47;4.80;99.90
7004;DHT22;3542;48.812;9.146;2022-12-07T09:01:13;4.80;99.90
7004;DHT22;3542;48.812;9.146;2022-12-07T09:03:38;4.90;99.90
7004;DHT22;3542;48.812;9.146;2022-12-07T09:06:04;5.00;99.90
7004;DHT22;3542;48.812;9.146;2022-12-07T09:08:33;5.00;99.90
7004;DHT22;3542;48.812;9.146;2022-12-07T09:11:00;5.10;99.90
7004;DHT22;3542;48.812;9.146;2022-12-07T09:13:25;5.10;99.90
7004;DHT22;3542;48.812;9.146;2022-12-07T09:15:51;5.10;99.90
7004;DHT22;3542;48.812;9.146;2022-12-07T09:18:16;5.20;99.90
7004;DHT22;3542;48.812;9.146;2022-12-07T09:20:42;5.20;99.90
7004;DHT22;3542;48.812;9.146;2022-12-07T09:23:07;5.30;99.90
7004;DHT22;3542;48.812;9.146;2022-12-07T09:25:34;5.30;99.90
7004;DHT22;3542;48.812;9.146;2022-12-07T09:28:00;5.40;99.90
7004;DHT22;3542;48.812;9.146;2022-12-07T09:30:26;5.40;99.90
7004;DHT22;3542;48.812;9.146;2022-12-07T09:32:56;5.50;99.90
7004;DHT22;3542;48.812;9.146;2022-12-07T09:35:23;5.60;99.90
7004;DHT22;3542;48.812;9.146;2022-12-07T09:37:49;5.60;99.90
7004;DHT22;3542;48.812;9.146;2022-12-07T09:40:16;5.70;99.90
7004;DHT22;3542;48.812;9.146;2022-12-07T09:42:46;5.70;99.90
7004;DHT22;3542;48.812;9.146;2022-12-07T09:45:19;5.80;99.90
7004;DHT22;3542;48.812;9.146;2022-12-07T09:47:46;5.80;99.90
7004;DHT22;3542;48.812;9.146;2022-12-07T09:50:25;5.90;99.90
7004;DHT22;3542;48.812;9.146;2022-12-07T09:52:51;5.90;99.90
7004;DHT22;3542;48.812;9.146;2022-12-07T09:55:29;5.90;99.90
7004;DHT22;3542;48.812;9.146;2022-12-07T09:57:55;5.80;99.90
7004;DHT22;3542;48.812;9.146;2022-12-07T10:00:23;5.80;99.90
7004;DHT22;3542;48.812;9.146;2022-12-07T10:03:00;5.80;99.90
7004;DHT22;3542;48.812;9.146;2022-12-07T10:05:39;5.70;99.90
7004;DHT22;3542;48.812;9.146;2022-12-07T10:08:07;5.70;99.90
7004;DHT22;3542;48.812;9.146;2022-12-07T10:10:34;5.80;99.90
7004;DHT22;3542;48.812;9.146;2022-12-07T10:13:08;5.70;99.90
7004;DHT22;3542;48.812;9.146;2022-12-07T10:15:52;5.60;99.90
7004;DHT22;3542;48.812;9.146;2022-12-07T10:20:47;5.80;99.90
7004;DHT22;3542;48.812;9.146;2022-12-07T10:23:17;5.80;99.90
7004;DHT22;3542;48.812;9.146;2022-12-07T10:25:44;5.80;99.90
7004;DHT22;3542;48.812;9.146;2022-12-07T10:28:18;5.90;99.90
7004;DHT22;3542;48.812;9.146;2022-12-07T10:33:31;6.20;99.90
7004;DHT22;3542;48.812;9.146;2022-12-07T10:35:57;6.20;99.90
7004;DHT22;3542;48.812;9.146;2022-12-07T10:38:25;6.30;99.90
7004;DHT22;3542;48.812;9.146;2022-12-07T10:41:06;6.30;99.90
7004;DHT22;3542;48.812;9.146;2022-12-07T10:43:32;6.10;99.90
7004;DHT22;3542;48.812;9.146;2022-12-07T10:46:13;6.00;99.90
7004;DHT22;3542;48.812;9.146;2022-12-07T10:57:19;5.90;99.90
7004;DHT22;3542;48.812;9.146;2022-12-07T11:00:22;5.80;99.90
7004;DHT22;3542;48.812;9.146;2022-12-07T11:03:04;5.80;99.90
7004;DHT22;3542;48.812;9.146;2022-12-07T11:05:49;5.80;99.90
7004;DHT22;3542;48.812;9.146;2022-12-07T11:11:24;5.80;99.90
7004;DHT22;3542;48.812;9.146;2022-12-07T11:16:47;5.90;99.90
7004;DHT22;3542;48.812;9.146;2022-12-07T11:27:08;6.10;99.90
7004;DHT22;3542;48.812;9.146;2022-12-07T11:32:17;5.90;99.90
7004;DHT22;3542;48.812;9.146;2022-12-07T11:37:33;5.80;99.90
7004;DHT22;3542;48.812;9.146;2022-12-07T11:40:05;5.90;99.90
7004;DHT22;3542;48.812;9.146;2022-12-07T11:42:41;5.90;99.90
7004;DHT22;3542;48.812;9.146;2022-12-07T11:45:22;5.90;99.90
7004;DHT22;3542;48.812;9.146;2022-12-07T11:48:02;5.90;99.90
7004;DHT22;3542;48.812;9.146;2022-12-07T11:55:45;5.60;99.90
7004;DHT22;3542;48.812;9.146;2022-12-07T12:01:14;5.60;99.90
7004;DHT22;3542;48.812;9.146;2022-12-07T12:03:52;5.60;99.90
7004;DHT22;3542;48.812;9.146;2022-12-07T12:06:19;5.70;99.90
7004;DHT22;3542;48.812;9.146;2022-12-07T12:08:56;5.70;99.90
7004;DHT22;3542;48.812;9.146;2022-12-07T12:11:56;5.80;99.90
7004;DHT22;3542;48.812;9.146;2022-12-07T12:14:54;5.80;99.90
7004;DHT22;3542;48.812;9.146;2022-12-07T12:20:31;5.80;99.90
7004;DHT22;3542;48.812;9.146;2022-12-07T12:22:58;5.80;99.90
7004;DHT22;3542;48.812;9.146;2022-12-07T12:25:28;5.80;99.90
7004;DHT22;3542;48.812;9.146;2022-12-07T12:27:57;5.70;99.90
7004;DHT22;3542;48.812;9.146;2022-12-07T12:30:36;5.70;99.90
7004;DHT22;3542;48.812;9.146;2022-12-07T12:33:28;5.60;99.90
7004;DHT22;3542;48.812;9.146;2022-12-07T12:36:21;5.60;99.90
7004;DHT22;3542;48.812;9.146;2022-12-07T12:51:58;5.70;99.90
7004;DHT22;3542;48.812;9.146;2022-12-07T12:54:35;5.70;99.90
7004;DHT22;3542;48.812;9.146;2022-12-07T12:57:25;5.70;99.90
7004;DHT22;3542;48.812;9.146;2022-12-07T13:02:24;5.80;99.90
7004;DHT22;3542;48.812;9.146;2022-12-07T13:04:56;5.80;99.90
7004;DHT22;3542;48.812;9.146;2022-12-07T13:23:19;5.70;99.90
7004;DHT22;3542;48.812;9.146;2022-12-07T13:25:54;5.60;99.90
7004;DHT22;3542;48.812;9.146;2022-12-07T13:28:22;5.70;99.90
7004;DHT22;3542;48.812;9.146;2022-12-07T13:31:23;5.70;99.90
7004;DHT22;3542;48.812;9.146;2022-12-07T13:33:50;5.70;99.90
7004;DHT22;3542;48.812;9.146;2022-12-07T13:36:24;5.70;99.90
7004;DHT22;3542;48.812;9.146;2022-12-07T13:38:56;5.70;99.90
7004;DHT22;3542;48.812;9.146;2022-12-07T13:41:26;5.60;99.90
7004;DHT22;3542;48.812;9.146;2022-12-07T13:44:17;5.60;99.90
7004;DHT22;3542;48.812;9.146;2022-12-07T13:49:20;5.50;99.90
7004;DHT22;3542;48.812;9.146;2022-12-07T13:51:47;5.60;99.90
7004;DHT22;3542;48.812;9.146;2022-12-07T13:54:13;5.60;99.90
7004;DHT22;3542;48.812;9.146;2022-12-07T13:56:39;5.50;99.90
7004;DHT22;3542;48.812;9.146;2022-12-07T13:59:15;5.50;99.90
7004;DHT22;3542;48.812;9.146;2022-12-07T14:01:41;5.50;99.90
7004;DHT22;3542;48.812;9.146;2022-12-07T14:06:51;5.40;99.90
7004;DHT22;3542;48.812;9.146;2022-12-07T14:09:18;5.40;99.90
7004;DHT22;3542;48.812;9.146;2022-12-07T14:11:46;5.40;99.90
7004;DHT22;3542;48.812;9.146;2022-12-07T14:14:19;5.40;99.90
7004;DHT22;3542;48.812;9.146;2022-12-07T14:16:56;5.40;99.90
7004;DHT22;3542;48.812;9.146;2022-12-07T14:22:28;5.40;99.90
7004;DHT22;3542;48.812;9.146;2022-12-07T14:33:14;5.40;99.90
7004;DHT22;3542;48.812;9.146;2022-12-07T14:38:15;5.40;99.90
7004;DHT22;3542;48.812;9.146;2022-12-07T14:40:41;5.40;99.90
7004;DHT22;3542;48.812;9.146;2022-12-07T14:43:11;5.30;99.90
7004;DHT22;3542;48.812;9.146;2022-12-07T14:45:38;5.30;99.90
7004;DHT22;3542;48.812;9.146;2022-12-07T14:48:05;5.30;99.90
7004;DHT22;3542;48.812;9.146;2022-12-07T14:50:36;5.30;99.90
7004;DHT22;3542;48.812;9.146;2022-12-07T14:53:11;5.20;99.90
7004;DHT22;3542;48.812;9.146;2022-12-07T14:55:38;5.20;99.90
7004;DHT22;3542;48.812;9.146;2022-12-07T14:58:03;5.10;99.90
7004;DHT22;3542;48.812;9.146;2022-12-07T15:00:29;5.10;99.90
7004;DHT22;3542;48.812;9.146;2022-12-07T15:02:56;5.00;99.90
7004;DHT22;3542;48.812;9.146;2022-12-07T15:05:21;5.00;99.90
7004;DHT22;3542;48.812;9.146;2022-12-07T15:07:48;5.00;99.90
7004;DHT22;3542;48.812;9.146;2022-12-07T15:10:22;5.00;99.90
7004;DHT22;3542;48.812;9.146;2022-12-07T15:12:48;5.00;99.90
7004;DHT22;3542;48.812;9.146;2022-12-07T15:15:14;5.00;99.90
7004;DHT22;3542;48.812;9.146;2022-12-07T15:17:39;4.90;99.90
7004;DHT22;3542;48.812;9.146;2022-12-07T15:20:07;4.90;99.90
7004;DHT22;3542;48.812;9.146;2022-12-07T15:22:33;4.90;99.90
7004;DHT22;3542;48.812;9.146;2022-12-07T15:24:58;4.90;99.90
7004;DHT22;3542;48.812;9.146;2022-12-07T15:27:24;4.90;99.90
7004;DHT22;3542;48.812;9.146;2022-12-07T15:29:49;4.90;99.90
7004;DHT22;3542;48.812;9.146;2022-12-07T15:32:15;4.80;99.90
7004;DHT22;3542;48.812;9.146;2022-12-07T15:34:40;4.80;99.90
7004;DHT22;3542;48.812;9.146;2022-12-07T15:37:06;4.80;99.90
7004;DHT22;3542;48.812;9.146;2022-12-07T15:39:32;4.70;99.90
7004;DHT22;3542;48.812;9.146;2022-12-07T15:41:58;4.70;99.90
7004;DHT22;3542;48.812;9.146;2022-12-07T15:44:23;4.70;99.90
7004;DHT22;3542;48.812;9.146;2022-12-07T15:47:07;4.60;99.90
7004;DHT22;3542;48.812;9.146;2022-12-07T15:49:33;4.50;99.90
7004;DHT22;3542;48.812;9.146;2022-12-07T15:51:58;4.40;99.90
7004;DHT22;3542;48.812;9.146;2022-12-07T15:54:26;4.30;99.90
7004;DHT22;3542;48.812;9.146;2022-12-07T15:56:52;4.20;99.90
7004;DHT22;3542;48.812;9.146;2022-12-07T15:59:18;4.20;99.90
7004;DHT22;3542;48.812;9.146;2022-12-07T16:01:43;4.10;99.90
7004;DHT22;3542;48.812;9.146;2022-12-07T16:04:09;4.10;99.90
7004;DHT22;3542;48.812;9.146;2022-12-07T16:06:35;4.10;99.90
7004;DHT22;3542;48.812;9.146;2022-12-07T16:09:01;4.00;99.90
7004;DHT22;3542;48.812;9.146;2022-12-07T16:11:26;4.10;99.90
7004;DHT22;3542;48.812;9.146;2022-12-07T16:13:52;4.00;99.90
7004;DHT22;3542;48.812;9.146;2022-12-07T16:16:19;4.00;99.90
7004;DHT22;3542;48.812;9.146;2022-12-07T16:18:46;4.00;99.90
7004;DHT22;3542;48.812;9.146;2022-12-07T16:21:13;4.00;99.90
7004;DHT22;3542;48.812;9.146;2022-12-07T16:23:38;3.90;99.90
7004;DHT22;3542;48.812;9.146;2022-12-07T16:26:10;3.90;99.90
7004;DHT22;3542;48.812;9.146;2022-12-07T16:28:36;3.90;99.90
7004;DHT22;3542;48.812;9.146;2022-12-07T16:31:03;3.90;99.90
7004;DHT22;3542;48.812;9.146;2022-12-07T16:33:29;3.90;99.90
7004;DHT22;3542;48.812;9.146;2022-12-07T16:35:55;3.80;99.90
7004;DHT22;3542;48.812;9.146;2022-12-07T16:38:20;3.80;99.90
7004;DHT22;3542;48.812;9.146;2022-12-07T16:40:47;3.80;99.90
7004;DHT22;3542;48.812;9.146;2022-12-07T16:43:13;3.70;99.90
7004;DHT22;3542;48.812;9.146;2022-12-07T16:45:39;3.60;99.90
7004;DHT22;3542;48.812;9.146;2022-12-07T16:48:05;3.60;99.90
7004;DHT22;3542;48.812;9.146;2022-12-07T16:50:30;3.50;99.90
7004;DHT22;3542;48.812;9.146;2022-12-07T16:52:56;3.40;99.90
7004;DHT22;3542;48.812;9.146;2022-12-07T16:55:21;3.40;99.90
7004;DHT22;3542;48.812;9.146;2022-12-07T16:57:47;3.30;99.90
7004;DHT22;3542;48.812;9.146;2022-12-07T17:00:13;3.30;99.90
7004;DHT22;3542;48.812;9.146;2022-12-07T17:02:38;3.20;99.90
7004;DHT22;3542;48.812;9.146;2022-12-07T17:05:04;3.20;99.90
7004;DHT22;3542;48.812;9.146;2022-12-07T17:07:29;3.10;99.90
7004;DHT22;3542;48.812;9.146;2022-12-07T17:09:55;3.20;99.90
7004;DHT22;3542;48.812;9.146;2022-12-07T17:12:20;3.10;99.90
7004;DHT22;3542;48.812;9.146;2022-12-07T17:14:46;3.10;99.90
7004;DHT22;3542;48.812;9.146;2022-12-07T17:17:30;3.10;99.90
7004;DHT22;3542;48.812;9.146;2022-12-07T17:19:56;3.10;99.90
7004;DHT22;3542;48.812;9.146;2022-12-07T17:22:21;3.20;99.90
7004;DHT22;3542;48.812;9.146;2022-12-07T17:24:47;3.20;99.90
7004;DHT22;3542;48.812;9.146;2022-12-07T17:27:12;3.20;99.90
7004;DHT22;3542;48.812;9.146;2022-12-07T17:29:38;3.20;99.90
7004;DHT22;3542;48.812;9.146;2022-12-07T17:32:03;3.20;99.90
7004;DHT22;3542;48.812;9.146;2022-12-07T17:34:29;3.30;99.90
7004;DHT22;3542;48.812;9.146;2022-12-07T17:36:54;3.30;99.90
7004;DHT22;3542;48.812;9.146;2022-12-07T17:39:20;3.30;99.90
7004;DHT22;3542;48.812;9.146;2022-12-07T17:41:46;3.30;99.90
7004;DHT22;3542;48.812;9.146;2022-12-07T17:44:30;3.40;99.90
7004;DHT22;3542;48.812;9.146;2022-12-07T17:46:56;3.40;99.90
7004;DHT22;3542;48.812;9.146;2022-12-07T17:49:25;3.40;99.90
7004;DHT22;3542;48.812;9.146;2022-12-07T17:51:50;3.40;99.90
7004;DHT22;3542;48.812;9.146;2022-12-07T17:54:35;3.50;99.90
7004;DHT22;3542;48.812;9.146;2022-12-07T17:57:00;3.40;99.90
7004;DHT22;3542;48.812;9.146;2022-12-07T17:59:26;3.40;99.90
7004;DHT22;3542;48.812;9.146;2022-12-07T18:01:52;3.50;99.90
7004;DHT22;3542;48.812;9.146;2022-12-07T18:04:17;3.50;99.90
7004;DHT22;3542;48.812;9.146;2022-12-07T18:06:43;3.50;99.90
7004;DHT22;3542;48.812;9.146;2022-12-07T18:09:09;3.50;99.90
7004;DHT22;3542;48.812;9.146;2022-12-07T18:11:35;3.50;99.90
7004;DHT22;3542;48.812;9.146;2022-12-07T18:14:01;3.50;99.90
7004;DHT22;3542;48.812;9.146;2022-12-07T18:16:28;3.50;99.90
7004;DHT22;3542;48.812;9.146;2022-12-07T18:18:58;3.60;99.90
7004;DHT22;3542;48.812;9.146;2022-12-07T18:21:27;3.60;99.90
7004;DHT22;3542;48.812;9.146;2022-12-07T18:23:55;3.50;99.90
7004;DHT22;3542;48.812;9.146;2022-12-07T18:26:24;3.60;99.90
7004;DHT22;3542;48.812;9.146;2022-12-07T18:28:50;3.60;99.90
7004;DHT22;3542;48.812;9.146;2022-12-07T18:31:17;3.60;99.90
7004;DHT22;3542;48.812;9.146;2022-12-07T18:33:43;3.60;99.90
7004;DHT22;3542;48.812;9.146;2022-12-07T18:36:10;3.60;99.90
7004;DHT22;3542;48.812;9.146;2022-12-07T18:38:36;3.60;99.90
7004;DHT22;3542;48.812;9.146;2022-12-07T18:41:02;3.60;99.90
7004;DHT22;3542;48.812;9.146;2022-12-07T18:43:28;3.70;99.90
7004;DHT22;3542;48.812;9.146;2022-12-07T18:45:54;3.60;99.90
7004;DHT22;3542;48.812;9.146;2022-12-07T18:48:20;3.60;99.90
7004;DHT22;3542;48.812;9.146;2022-12-07T18:50:50;3.60;99.90
7004;DHT22;3542;48.812;9.146;2022-12-07T18:53:22;3.60;99.90
7004;DHT22;3542;48.812;9.146;2022-12-07T18:55:48;3.60;99.90
7004;DHT22;3542;48.812;9.146;2022-12-07T18:58:13;3.60;99.90
7004;DHT22;3542;48.812;9.146;2022-12-07T19:00:39;3.60;99.90
7004;DHT22;3542;48.812;9.146;2022-12-07T19:03:04;3.70;99.90
7004;DHT22;3542;48.812;9.146;2022-12-07T19:05:30;3.70;99.90
7004;DHT22;3542;48.812;9.146;2022-12-07T19:15:42;3.60;99.90
7004;DHT22;3542;48.812;9.146;2022-12-07T19:18:07;3.60;99.90
7004;DHT22;3542;48.812;9.146;2022-12-07T19:20:33;3.60;99.90
7004;DHT22;3542;48.812;9.146;2022-12-07T19:22:58;3.60;99.90
7004;DHT22;3542;48.812;9.146;2022-12-07T19:25:24;3.50;99.90
7004;DHT22;3542;48.812;9.146;2022-12-07T19:27:50;3.50;99.90
7004;DHT22;3542;48.812;9.146;2022-12-07T19:30:15;3.50;99.90
7004;DHT22;3542;48.812;9.146;2022-12-07T19:32:41;3.50;99.90
7004;DHT22;3542;48.812;9.146;2022-12-07T19:35:07;3.60;99.90
7004;DHT22;3542;48.812;9.146;2022-12-07T19:37:35;3.50;99.90
7004;DHT22;3542;48.812;9.146;2022-12-07T19:40:00;3.50;99.90
7004;DHT22;3542;48.812;9.146;2022-12-07T19:42:26;3.50;99.90
7004;DHT22;3542;48.812;9.146;2022-12-07T19:44:52;3.60;99.90
7004;DHT22;3542;48.812;9.146;2022-12-07T19:47:17;3.60;99.90